Main page
METAR-TAF:

METAR-TAF

Airports :

Mallam Aminu Kano International Airport

Kano, Nigeria

latitude: 12-03N, longitude: 008-32E, elevation: 476 m

Current weather observation

The report was made 52 minutes ago, at 05:00 UTC
Wind 7 kt from the West/Southwest
Temperature 26°C
Humidity 74%
Pressure 1017 hPa
Visibility 10 km or more
no clouds below 1500 m and no cumulonimbus

METAR: DNKN 250500Z 24007KT CAVOK 26/21 Q1017 NOSIG

Time: 06:52 (05:52 UTC)

Forecast

The report was made 52 minutes ago, at 05:00 UTC
Forecast valid from 25 at 06 UTC to 26 at 12 UTC
Wind 10 kt from the West/Southwest
Visibility 10 km or more
no clouds below 1500 m and no cumulonimbus

TAF: DNKN 250500Z 2506/2612 24010KT CAVOK

Weather observations and forecasts of more than 4000 airports (METAR and TAF reports).

The available stations are represented by yellow and red dots on the map.

Hover mouse over dot to see the name of the station.

Then click to see weather observations and forecasts.

To change the map : click on the green buttons with a black cross to zoom in, on the green button with a dash to zoom out, or on the green arrows for adjacent maps.


METAR-TAF: